AUA weather

Queen Beatrix International Airport
Oranjestad, Aruba

Public forecast

Using degrees Celsius for public forecast. Weather courtesy of forecast.io.

Current aviation weather report (METAR) for Queen Beatrix International Airport

Retrieved 2020/02/24 05:00 UTC (23 minutes ago):

TNCA 240500Z 08007KT 9999 FEW019 26/20 Q1014 NOSIG

Aviation forecast (TAF) for Queen Beatrix International Airport

Retrieved 2020-02-24 00:03 UTC (5 hours ago):

TAF TNCA 240000Z 2400/2424 07010KT 9999 SCT022